Latest Weather Observations for Williamtown

IDN60801

Issued at 5:05 pm EDT Friday 30 January 2015 (issued every 30 minutes, with the page automatically refreshed every 10 minutes)

About weather observations | Map of weather stations | Latest weather observations for NSW | Other Formats
Station Details ID: 061078 Name: WILLIAMTOWN RAAF Lat: -32.79 Lon: 151.84 Height: 9.0 m
Data from the previous 72 hours. | See also: Recent months at Williamtown
Date/Time
EDT
Temp
°C
App
Temp
°C
Dew
Point
Rel
Hum
%
Delta-T
°C
Wind Press
QNH
hPa
Press
MSL
hPa
Rain
since 9 am
mm
Dir
 
Spd
km/h
Gust
km/h
Spd
kts
Gust
kts
30/05:00pm 23.2 19.7 10.1 43 7.2 SE 19 28 10 15 1005.6 - 0.0
30/04:30pm 23.6 19.9 10.2 42 7.4 SE 20 30 11 16 1005.7 - 0.0
30/04:00pm 23.6 19.8 9.9 42 7.5 SSE 20 26 11 14 1006.0 - 0.0
30/03:30pm 24.2 21.7 11.2 44 7.3 SE 15 19 8 10 1006.0 - 0.0
30/03:00pm 23.1 19.7 11.1 46 6.7 SSE 20 24 11 13 1006.2 1006.2 0.0
30/02:30pm 23.6 20.2 10.6 44 7.2 S 19 24 10 13 1006.4 - 0.0
30/02:00pm 25.7 21.3 7.4 31 9.7 WNW 20 35 11 19 1006.5 - 0.0
30/01:30pm 25.2 19.4 8.0 33 9.2 W 28 37 15 20 1006.9 - 0.0
30/01:00pm 24.8 20.9 7.3 32 9.2 WSW 17 26 9 14 1007.3 - 0.0
30/12:30pm 23.6 20.5 8.7 38 8.0 SW 15 26 8 14 1007.9 - 0.0
30/12:00pm 22.8 18.5 6.9 36 8.2 SW 19 30 10 16 1008.3 1008.3 0.0
30/11:30am 22.3 18.0 7.2 37 7.8 SSW 19 26 10 14 1008.6 - 0.0
30/11:00am 22.0 17.6 7.3 38 7.6 SW 20 30 11 16 1009.2 - 0.0
30/10:30am 21.8 17.4 7.5 39 7.4 SW 20 30 11 16 1009.3 - 0.0
30/10:00am 21.1 18.2 8.1 43 6.8 W 13 19 7 10 1009.5 - 0.0
30/09:30am 20.2 16.5 7.8 44 6.4 W 17 28 9 15 1009.7 - 0.0
30/09:00am 19.2 16.3 10.9 58 4.5 W 17 20 9 11 1010.0 1010.0 0.0
30/08:30am 18.4 15.2 11.2 63 3.9 W 19 26 10 14 1010.0 - 0.0
30/08:00am 16.7 13.9 11.3 70 2.9 WNW 17 20 9 11 1009.8 - 0.0
30/07:30am 14.9 12.1 11.4 79 1.9 WNW 17 20 9 11 1009.7 - 0.0
30/07:00am 13.3 11.2 11.0 86 1.2 WNW 13 15 7 8 1009.5 - 0.0
30/06:30am 12.0 9.8 10.7 92 0.7 WNW 13 15 7 8 1009.5 - 0.0
30/06:00am 12.2 9.9 10.5 89 0.9 NW 13 15 7 8 1009.3 1009.3 0.0
30/05:30am 12.3 9.7 10.6 89 0.9 WNW 15 15 8 8 1009.2 - 0.0
30/05:00am 12.6 10.0 10.7 88 1.0 WNW 15 17 8 9 1009.3 - 0.0
30/04:30am 13.3 10.7 10.8 85 1.3 WNW 15 17 8 9 1009.4 - 0.0
30/04:00am 13.2 11.0 10.7 85 1.3 WNW 13 17 7 9 1009.5 - 0.0
30/03:30am 13.9 11.2 10.5 80 1.8 W 15 15 8 8 1009.6 - 0.0
30/03:00am 14.6 11.9 10.4 76 2.2 WNW 15 17 8 9 1009.8 1009.8 0.0
30/02:30am 14.9 11.8 10.3 74 2.4 WNW 17 19 9 10 1010.1 - 0.0
30/02:00am 15.2 12.5 10.5 73 2.5 W 15 17 8 9 1010.3 - 0.0
30/01:30am 16.3 13.2 10.2 67 3.2 W 17 20 9 11 1010.5 - 0.0
30/01:00am 16.1 13.7 11.3 73 2.6 W 15 19 8 10 1010.7 - 0.0
30/12:30am 16.7 14.3 11.5 71 2.8 W 15 19 8 10 1010.8 - 0.0
30/12:00am 18.3 14.2 11.3 63 3.8 SSW 24 32 13 17 1011.0 1011.0 0.0
 
Date/Time
EDT
Temp
°C
App
Temp
°C
Dew
Point
Rel
Hum
%
Delta-T
°C
Wind Press
QNH
hPa
Press
MSL
hPa
Rain
since 9 am
mm
Dir
 
Spd
km/h
Gust
km/h
Spd
kts
Gust
kts
29/11:30pm 18.3 15.2 11.5 64 3.7 SW 19 28 10 15 1011.2 - 0.0
29/11:00pm 18.6 15.6 12.1 66 3.6 SW 19 26 10 14 1011.3 - 0.0
29/10:30pm 19.3 14.2 11.9 62 4.1 SSW 30 41 16 22 1011.4 - 0.0
29/10:00pm 19.6 15.2 11.8 60 4.3 SSW 26 35 14 19 1011.4 - 0.0
29/09:30pm 19.7 14.4 10.0 53 5.2 SSW 28 39 15 21 1011.3 - 0.0
29/09:00pm 19.7 16.4 11.5 59 4.5 SSW 20 30 11 16 1011.2 1011.2 0.0
29/08:30pm 19.6 16.0 9.9 53 5.2 SSW 19 26 10 14 1011.0 - 0.0
29/08:00pm 20.1 15.8 9.4 50 5.7 SSW 22 35 12 19 1010.9 - 0.0
29/07:30pm 20.6 14.5 10.3 51 5.6 S 33 44 18 24 1010.6 - 0.0
29/07:00pm 21.2 14.4 9.2 46 6.4 S 35 48 19 26 1010.4 - 0.0
29/06:30pm 21.5 15.6 10.5 49 6.0 S 32 46 17 25 1010.1 - 0.0
29/06:00pm 21.8 15.6 10.2 47 6.3 S 33 48 18 26 1009.8 1009.8 0.0
29/05:30pm 22.0 16.2 11.4 51 5.9 S 33 44 18 24 1009.9 - 0.0
29/05:00pm 22.2 16.5 11.7 51 5.9 S 33 44 18 24 1010.1 - 0.0
29/04:30pm 22.7 16.6 10.5 46 6.7 S 33 46 18 25 1010.3 - 0.0
29/04:00pm 22.4 16.0 9.4 43 7.0 S 33 46 18 25 1010.4 - 0.0
29/03:30pm 22.4 15.4 10.1 45 6.7 S 37 52 20 28 1010.5 - 0.0
29/03:04pm 22.2 15.1 8.1 40 7.4 S 35 54 19 29 1010.6 - 0.0
29/03:00pm 23.2 16.2 9.8 42 7.3 S 37 46 20 25 1010.7 1010.7 0.0
29/02:30pm 22.3 15.7 10.0 45 6.7 S 35 50 19 27 1011.0 - 0.0
29/02:27pm 22.2 15.6 10.1 46 6.6 S 35 54 19 29 1011.0 - 0.0
29/02:00pm 22.5 15.6 10.3 46 6.7 S 37 52 20 28 1011.0 - 0.0
29/01:30pm 22.3 16.3 10.7 47 6.4 S 33 44 18 24 1011.1 - 0.0
29/01:00pm 22.4 17.0 10.8 47 6.4 S 30 37 16 20 1011.5 - 0.0
29/12:30pm 22.1 18.2 10.9 49 6.2 S 22 37 12 20 1011.7 - 0.0
29/12:00pm 22.4 16.9 9.2 43 7.1 SW 28 37 15 20 1011.9 1011.9 0.0
29/11:30am 21.1 15.8 9.8 48 6.1 SW 28 37 15 20 1012.0 - 0.0
29/11:00am 21.4 16.8 11.1 52 5.7 SSW 26 35 14 19 1012.1 - 0.0
29/10:30am 20.9 15.6 11.1 53 5.4 SW 30 41 16 22 1012.2 - 0.0
29/10:00am 20.3 14.6 11.2 56 5.0 SSW 32 44 17 24 1012.3 - 0.0
29/09:30am 19.8 14.6 11.7 59 4.5 SW 30 37 16 20 1012.4 - 0.0
29/09:00am 19.1 14.3 11.7 62 4.1 SW 28 39 15 21 1012.3 1012.3 3.0
29/08:30am 18.5 15.3 12.0 66 3.6 SW 20 28 11 15 1012.2 - 3.0
29/08:00am 16.8 13.5 11.7 72 2.8 WSW 20 28 11 15 1012.2 - 3.0
29/07:30am 16.3 13.7 12.1 76 2.3 W 17 24 9 13 1012.1 - 3.0
29/07:00am 16.0 12.8 12.0 77 2.2 WSW 20 30 11 16 1011.6 - 3.0
29/06:30am 15.6 12.7 12.3 81 1.8 WSW 19 26 10 14 1011.4 - 3.0
29/06:00am 15.7 13.0 12.8 83 1.6 WSW 19 26 10 14 1011.1 1011.1 3.0
29/05:30am 15.4 12.7 12.9 85 1.4 WSW 19 28 10 15 1010.6 - 3.0
29/05:00am 15.8 13.2 13.1 84 1.5 W 19 26 10 14 1010.5 - 3.0
29/04:30am 16.0 13.9 13.5 85 1.4 W 17 26 9 14 1010.5 - 3.0
29/04:00am 16.0 14.3 13.7 86 1.3 W 15 19 8 10 1010.7 - 3.0
29/03:30am 17.1 14.9 14.3 83 1.6 SW 19 28 10 15 1010.8 - 3.0
29/03:00am 16.8 15.5 13.8 82 1.7 W 13 19 7 10 1011.1 1011.1 3.0
29/02:30am 16.8 16.1 14.4 86 1.4 W 11 17 6 9 1011.5 - 3.0
29/02:00am 17.1 16.3 15.0 87 1.2 W 13 17 7 9 1011.4 - 3.0
29/01:30am 17.4 18.0 15.7 90 1.0 SSW 7 11 4 6 1011.8 - 3.0
29/01:00am 17.5 16.5 15.6 89 1.1 S 15 22 8 12 1012.2 - 2.8
29/12:30am 17.7 16.5 15.1 85 1.5 WSW 15 22 8 12 1012.3 - 2.4
29/12:00am 17.3 16.6 15.4 88 1.1 W 13 15 7 8 1012.5 1012.5 2.4
 
Date/Time
EDT
Temp
°C
App
Temp
°C
Dew
Point
Rel
Hum
%
Delta-T
°C
Wind Press
QNH
hPa
Press
MSL
hPa
Rain
since 9 am
mm
Dir
 
Spd
km/h
Gust
km/h
Spd
kts
Gust
kts
28/11:30pm 17.4 16.7 15.5 89 1.1 NW 13 17 7 9 1012.4 - 2.4
28/11:21pm 17.6 17.0 15.6 88 1.2 WNW 13 17 7 9 1012.5 - 2.4
28/11:00pm 17.4 17.6 15.7 90 1.0 NW 9 13 5 7 1012.5 - 2.4
28/10:46pm 17.5 18.2 16.0 91 0.9 ENE 7 13 4 7 1012.7 - 2.4
28/10:30pm 18.0 18.4 15.3 84 1.6 SE 7 9 4 5 1012.8 - 1.8
28/10:00pm 17.8 19.6 15.4 86 1.4 CALM 0 0 0 0 1012.8 - 1.8
28/09:30pm 17.9 16.4 15.2 84 1.6 WSW 17 24 9 13 1012.8 - 1.8
28/09:00pm 18.7 14.5 14.7 77 2.3 SW 30 35 16 19 1012.6 1012.6 1.8
28/08:30pm 18.3 17.2 15.4 83 1.7 WSW 15 19 8 10 1012.2 - 1.8
28/08:00pm 18.6 16.7 15.7 83 1.7 SSW 20 28 11 15 1012.6 - 1.8
28/07:30pm 18.6 17.9 16.3 86 1.4 WSW 15 20 8 11 1012.5 - 1.8
28/07:00pm 19.2 18.4 15.1 77 2.4 WSW 13 19 7 10 1012.1 - 1.8
28/06:30pm 19.9 17.1 14.2 69 3.3 SW 22 30 12 16 1012.0 - 1.8
28/06:00pm 20.8 17.5 12.7 59 4.6 S 22 39 12 21 1011.8 1011.8 1.8
28/05:30pm 22.0 19.6 12.5 54 5.4 S 17 28 9 15 1011.8 - 1.8
28/05:00pm 22.3 18.6 12.7 54 5.5 S 24 41 13 22 1011.8 - 1.8
28/04:30pm 22.2 19.1 13.4 57 5.1 SSW 22 30 12 16 1011.9 - 1.8
28/04:00pm 22.1 17.1 9.7 45 6.7 SSE 26 32 14 17 1012.0 - 1.8
28/03:30pm 23.1 17.9 10.1 43 7.1 S 28 37 15 20 1012.1 - 1.8
28/03:00pm 22.7 17.5 10.3 45 6.8 S 28 37 15 20 1012.3 1012.3 1.8
28/02:30pm 22.8 17.3 10.4 45 6.8 S 30 43 16 23 1012.3 - 1.8
28/02:00pm 22.7 18.1 11.2 48 6.4 S 26 37 14 20 1012.3 - 1.8
28/01:30pm 22.4 18.0 11.7 50 6.0 S 26 35 14 19 1012.4 - 1.8
28/01:00pm 21.9 18.2 12.8 56 5.2 SSE 24 32 13 17 1012.5 - 1.8
28/12:30pm 21.3 17.4 13.3 60 4.6 S 26 35 14 19 1012.6 - 1.8
28/12:00pm 21.0 17.8 14.3 65 3.9 SSE 24 30 13 16 1012.6 1012.6 1.8
28/11:30am 20.6 18.5 14.8 69 3.4 S 19 22 10 12 1012.6 - 1.8
28/11:00am 19.1 18.4 16.3 84 1.7 SSW 15 26 8 14 1012.4 - 1.8
28/10:30am 18.5 17.2 17.2 92 0.8 SW 20 26 11 14 1012.4 - 1.6
28/10:18am 18.6 18.0 17.6 94 0.6 SW 17 26 9 14 1012.3 - 1.4
28/10:00am 18.2 17.1 17.2 94 0.6 S 19 28 10 15 1012.3 - 1.2
28/09:30am 18.4 18.2 17.7 96 0.4 SSW 15 20 8 11 1012.2 - 0.8
28/09:00am 18.4 18.6 17.7 96 0.4 W 13 15 7 8 1011.6 1011.6 34.6
28/08:30am 18.1 17.4 17.3 95 0.5 SW 17 28 9 15 1011.6 - 34.0
28/08:00am 18.1 18.9 17.3 95 0.5 SW 9 20 5 11 1011.2 - 33.0
28/07:30am 18.2 18.7 17.5 96 0.4 WSW 11 15 6 8 1010.9 - 32.6
28/07:17am 18.1 18.9 17.3 95 0.5 S 9 15 5 8 1010.9 - 32.0
28/07:00am 18.1 19.3 17.3 95 0.5 ENE 7 9 4 5 1010.4 - 31.2
28/06:44am 18.0 20.1 17.2 95 0.5 SSE 2 7 1 4 1010.4 - 31.0
28/06:30am 18.1 19.4 17.1 94 0.6 ESE 6 9 3 5 1010.3 - 30.8
28/06:20am 18.3 18.9 17.6 96 0.4 ESE 11 19 6 10 1010.2 - 29.8
28/06:00am 18.4 19.1 17.9 97 0.3 SW 11 15 6 8 1009.9 1009.9 28.8
28/05:30am 18.2 19.6 17.9 98 0.2 W 7 13 4 7 1009.4 - 28.6
28/05:00am 18.2 19.6 17.9 98 0.2 WNW 7 9 4 5 1009.3 - 28.6
28/04:30am 18.4 19.5 18.1 98 0.2 WNW 9 13 5 7 1009.4 - 28.4
28/04:00am 18.4 19.2 18.1 98 0.2 WNW 11 13 6 7 1009.5 - 28.2
28/03:30am 18.3 21.1 18.0 98 0.2 CALM 0 0 0 0 1009.8 - 27.8
28/03:00am 18.3 21.0 17.8 97 0.3 CALM 0 0 0 0 1009.9 1009.9 27.8
28/02:30am 18.2 19.7 17.7 97 0.3 SW 6 7 3 4 1010.2 - 27.8
28/02:00am 18.1 19.0 17.6 97 0.3 SW 9 9 5 5 1010.5 - 27.8
28/01:30am 18.2 20.9 17.7 97 0.3 CALM 0 0 0 0 1010.6 - 27.8
28/01:00am 18.3 21.1 18.0 98 0.2 CALM 0 0 0 0 1010.9 - 27.8
28/12:30am 18.3 21.0 17.8 97 0.3 CALM 0 0 0 0 1011.3 - 27.8
28/12:00am 18.3 19.9 17.8 97 0.3 WSW 6 7 3 4 1011.7 1011.7 27.8
 
Date/Time
EDT
Temp
°C
App
Temp
°C
Dew
Point
Rel
Hum
%
Delta-T
°C
Wind Press
QNH
hPa
Press
MSL
hPa
Rain
since 9 am
mm
Dir
 
Spd
km/h
Gust
km/h
Spd
kts
Gust
kts
27/11:30pm 18.4 19.1 17.9 97 0.3 W 11 13 6 7 1012.2 - 27.8
27/11:00pm 18.6 20.0 17.9 96 0.4 ENE 7 11 4 6 1011.5 - 27.8
27/10:30pm 18.4 21.2 17.9 97 0.3 CALM 0 0 0 0 1011.8 - 27.8
27/10:00pm 18.4 19.8 17.7 96 0.4 SE 7 9 4 5 1012.1 - 27.8
27/09:30pm 18.3 19.2 17.6 96 0.4 SE 9 11 5 6 1011.8 - 27.8
27/09:00pm 18.3 20.9 17.6 96 0.4 CALM 0 6 0 3 1011.7 1011.7 27.8
27/08:30pm 18.3 19.6 17.6 96 0.4 NNE 7 11 4 6 1011.6 - 27.8
27/08:00pm 18.4 19.3 17.6 95 0.5 N 9 11 5 6 1011.9 - 27.8
27/07:30pm 18.3 19.7 17.3 94 0.6 N 6 7 3 4 1011.5 - 27.6
27/07:00pm 18.7 19.7 17.7 94 0.6 N 9 13 5 7 1011.3 - 27.2
27/06:30pm 19.0 20.5 18.0 94 0.6 WNW 7 7 4 4 1011.2 - 26.8
27/06:00pm 19.0 21.7 17.7 92 0.8 CALM 0 0 0 0 1010.8 1010.8 26.6
27/05:30pm 19.0 20.0 17.7 92 0.8 N 9 9 5 5 1010.8 - 26.6

Other Formats:

Comma delimited format used in spreadsheet applications
http://www.bom.gov.au/fwo/IDN60801/IDN60801.94776.axf

JavaScript Object Notation format (JSON) in row-major order
http://www.bom.gov.au/fwo/IDN60801/IDN60801.94776.json